Time;durP1;ratioP1;P1;durP2;ratioP2;P2;SDS_P1;SDS_P2;PMS_P1;PMS_P2;Temp;Humidity;BMP_temperature;BMP_pressure;BME280_temperature;BME280_humidity;BME280_pressure;Samples;Min_cycle;Max_cycle;Signal;HPM_P1;HPM_P2
2021/08/30 00:01:52;;;;;;;2.90;2.67;;;;;;;;;;6370109;22;20428;-73
2021/08/30 00:04:18;;;;;;;3.53;3.23;;;;;;;;;;6370234;22;20382;-73
2021/08/30 00:06:44;;;;;;;3.23;3.03;;;;;;;;;;6369977;22;20372;-73
2021/08/30 00:09:10;;;;;;;3.37;3.07;;;;;;;;;;6342152;22;20897;-73
2021/08/30 00:11:37;;;;;;;3.17;2.80;;;;;;;;;;6369219;22;20404;-73
2021/08/30 00:14:03;;;;;;;3.77;3.03;;;;;;;;;;6370021;22;20371;-73
2021/08/30 00:16:29;;;;;;;5.03;3.30;;;;;;;;;;6369962;22;20363;-73
2021/08/30 00:18:55;;;;;;;3.90;3.50;;;;;;;;;;6369993;22;20437;-73
2021/08/30 00:21:21;;;;;;;4.13;3.73;;;;;;;;;;6380659;22;20738;-74
2021/08/30 00:23:47;;;;;;;3.80;3.40;;;;;;;;;;6370022;22;20379;-73
2021/08/30 00:26:13;;;;;;;3.60;3.30;;;;;;;;;;6368824;22;20489;-73
2021/08/30 00:28:40;;;;;;;4.53;4.13;;;;;;;;;;6369917;22;20379;-73
2021/08/30 00:31:06;;;;;;;4.70;4.30;;;;;;;;;;6341679;22;20391;-72
2021/08/30 00:33:32;;;;;;;4.30;3.90;;;;;;;;;;6369839;22;20383;-73
2021/08/30 00:35:58;;;;;;;5.37;4.83;;;;;;;;;;6369736;22;20371;-73
2021/08/30 00:38:24;;;;;;;5.30;4.80;;;;;;;;;;6341908;22;20448;-74
2021/08/30 00:40:50;;;;;;;5.17;4.73;;;;;;;;;;6368832;22;20367;-73
2021/08/30 00:43:16;;;;;;;5.03;4.63;;;;;;;;;;6369661;22;20371;-73
2021/08/30 00:45:42;;;;;;;5.30;4.80;;;;;;;;;;6369405;22;20371;-73
2021/08/30 00:48:08;;;;;;;4.47;4.00;;;;;;;;;;6380463;22;20371;-73
2021/08/30 00:50:34;;;;;;;4.70;4.27;;;;;;;;;;6369257;22;20687;-74
2021/08/30 00:53:00;;;;;;;5.73;5.13;;;;;;;;;;6368411;22;20458;-74
2021/08/30 00:55:26;;;;;;;5.53;5.03;;;;;;;;;;6368413;22;20428;-74
2021/08/30 00:57:53;;;;;;;6.07;5.47;;;;;;;;;;6380305;22;20438;-73
2021/08/30 01:00:19;;;;;;;5.20;4.80;;;;;;;;;;6341479;22;20391;-73
2021/08/30 01:02:46;;;;;;;5.57;4.97;;;;;;;;;;6369778;22;20370;-73
2021/08/30 01:05:13;;;;;;;5.13;4.73;;;;;;;;;;6369516;22;20368;-73
2021/08/30 01:08:08;;;;;;;6.13;5.53;;;;;;;;;;6369473;22;20687;-73
2021/08/30 01:10:50;;;;;;;7.27;6.33;;;;;;;;;;6342148;22;20719;-74
2021/08/30 01:13:21;;;;;;;6.83;6.20;;;;;;;;;;6380561;22;20455;-74
2021/08/30 01:15:48;;;;;;;6.77;6.17;;;;;;;;;;6369318;22;20842;-74
2021/08/30 01:18:22;;;;;;;6.00;5.50;;;;;;;;;;6369563;22;20820;-74
2021/08/30 01:20:51;;;;;;;6.27;5.77;;;;;;;;;;6369323;22;20373;-74
2021/08/30 01:23:17;;;;;;;6.50;6.00;;;;;;;;;;6369491;22;20701;-74
2021/08/30 01:25:43;;;;;;;7.07;6.47;;;;;;;;;;6368477;22;20455;-74
2021/08/30 01:28:09;;;;;;;7.43;6.73;;;;;;;;;;6369502;22;20375;-73
2021/08/30 01:30:39;;;;;;;7.23;6.63;;;;;;;;;;6369326;22;20375;-73
2021/08/30 01:33:06;;;;;;;6.70;6.10;;;;;;;;;;6369391;22;20379;-73
2021/08/30 01:35:32;;;;;;;7.53;6.90;;;;;;;;;;6369042;22;20363;-73
2021/08/30 01:38:00;;;;;;;7.43;6.73;;;;;;;;;;6369288;22;20430;-73
2021/08/30 01:40:27;;;;;;;7.53;6.83;;;;;;;;;;6379521;22;20387;-73
2021/08/30 01:42:54;;;;;;;7.30;6.70;;;;;;;;;;6369523;22;20387;-73
2021/08/30 01:45:22;;;;;;;7.40;6.77;;;;;;;;;;6369161;22;20463;-73
2021/08/30 01:47:49;;;;;;;7.33;6.73;;;;;;;;;;6341553;22;20443;-72
2021/08/30 01:50:17;;;;;;;7.87;7.17;;;;;;;;;;6369225;22;20379;-72
2021/08/30 01:52:44;;;;;;;7.47;6.77;;;;;;;;;;6369918;22;20402;-74
2021/08/30 02:00:42;;;;;;;7.90;7.20;;;;;;;;;;6380931;22;20703;-73
2021/08/30 02:03:08;;;;;;;7.20;6.60;;;;;;;;;;6371558;22;20420;-73
2021/08/30 02:05:34;;;;;;;7.67;7.07;;;;;;;;;;6371169;22;21101;-73
2021/08/30 02:08:00;;;;;;;6.80;6.20;;;;;;;;;;6371497;22;20378;-73
2021/08/30 02:10:26;;;;;;;7.37;6.77;;;;;;;;;;6370548;22;21140;-74
2021/08/30 02:12:52;;;;;;;6.43;5.93;;;;;;;;;;6371547;22;20729;-74
2021/08/30 02:15:18;;;;;;;7.33;6.77;;;;;;;;;;6343102;22;20401;-74
2021/08/30 02:17:47;;;;;;;7.27;6.57;;;;;;;;;;6371329;22;20732;-73
2021/08/30 02:20:16;;;;;;;6.27;5.67;;;;;;;;;;6371286;22;20374;-73
2021/08/30 02:22:43;;;;;;;5.93;5.33;;;;;;;;;;6382256;22;20379;-73
2021/08/30 02:25:14;;;;;;;6.60;6.00;;;;;;;;;;6370938;22;20424;-73
2021/08/30 02:27:44;;;;;;;6.60;6.00;;;;;;;;;;6306559;22;20411;-73
2021/08/30 02:30:13;;;;;;;6.13;5.63;;;;;;;;;;6308329;22;20863;-73
2021/08/30 02:32:40;;;;;;;7.73;7.03;;;;;;;;;;6308431;22;20369;-73
2021/08/30 02:35:07;;;;;;;6.97;6.30;;;;;;;;;;6308356;22;20754;-73
2021/08/30 02:37:37;;;;;;;7.73;7.07;;;;;;;;;;6308177;22;20413;-74
2021/08/30 02:40:04;;;;;;;7.20;6.60;;;;;;;;;;6308052;22;20716;-73
2021/08/30 02:42:30;;;;;;;7.80;7.03;;;;;;;;;;6305522;22;20381;-74
2021/08/30 02:44:57;;;;;;;7.33;6.63;;;;;;;;;;6308194;22;20388;-73
2021/08/30 02:47:23;;;;;;;7.87;7.10;;;;;;;;;;6308244;22;20856;-73
2021/08/30 02:49:49;;;;;;;7.70;6.67;;;;;;;;;;6308145;22;20385;-73
2021/08/30 02:52:16;;;;;;;6.00;5.50;;;;;;;;;;6306904;22;20769;-73
2021/08/30 02:54:44;;;;;;;6.73;6.23;;;;;;;;;;6307057;22;20461;-73
2021/08/30 02:57:10;;;;;;;6.30;5.80;;;;;;;;;;6307169;22;20489;-73
2021/08/30 02:59:36;;;;;;;5.17;4.77;;;;;;;;;;6307569;22;20381;-74
2021/08/30 03:02:03;;;;;;;5.20;4.80;;;;;;;;;;6307781;22;20425;-73
2021/08/30 03:04:30;;;;;;;5.33;4.83;;;;;;;;;;6308034;22;20380;-74
2021/08/30 03:06:57;;;;;;;4.37;4.00;;;;;;;;;;6307541;22;20369;-74
2021/08/30 03:09:23;;;;;;;4.27;3.90;;;;;;;;;;6307969;22;20832;-74
2021/08/30 03:11:50;;;;;;;6.60;4.40;;;;;;;;;;6305050;22;20385;-74
2021/08/30 03:14:18;;;;;;;4.00;3.70;;;;;;;;;;6307966;22;20422;-74
2021/08/30 03:16:44;;;;;;;3.97;3.67;;;;;;;;;;6307709;22;20468;-74
2021/08/30 03:19:13;;;;;;;3.20;3.00;;;;;;;;;;6306334;22;20733;-74
2021/08/30 03:21:39;;;;;;;4.70;3.90;;;;;;;;;;6307350;22;20388;-74
2021/08/30 03:24:06;;;;;;;3.77;2.93;;;;;;;;;;6307815;22;20380;-74
2021/08/30 03:26:32;;;;;;;3.97;3.57;;;;;;;;;;6322638;22;20519;-74
2021/08/30 03:28:58;;;;;;;3.57;3.27;;;;;;;;;;6339320;22;20372;-74
2021/08/30 03:31:27;;;;;;;2.90;2.70;;;;;;;;;;6338981;22;20368;-74
2021/08/30 03:33:53;;;;;;;4.00;3.17;;;;;;;;;;6349988;22;20372;-74
2021/08/30 03:36:19;;;;;;;3.87;3.47;;;;;;;;;;6338912;22;20428;-74
2021/08/30 03:38:45;;;;;;;3.10;2.90;;;;;;;;;;6339003;22;20424;-73
2021/08/30 03:41:12;;;;;;;4.13;3.03;;;;;;;;;;6338193;22;20375;-74
2021/08/30 03:43:38;;;;;;;3.40;3.20;;;;;;;;;;6339009;22;20899;-74
2021/08/30 03:46:04;;;;;;;5.10;3.60;;;;;;;;;;6338750;22;20410;-73
2021/08/30 03:48:31;;;;;;;3.20;2.87;;;;;;;;;;6349843;22;20790;-74
2021/08/30 03:50:58;;;;;;;3.53;3.33;;;;;;;;;;6338597;22;20372;-74
2021/08/30 03:53:24;;;;;;;5.13;4.10;;;;;;;;;;6349339;22;20544;-74
2021/08/30 03:55:50;;;;;;;3.70;3.40;;;;;;;;;;6348695;22;20456;-74
2021/08/30 03:58:20;;;;;;;4.37;3.60;;;;;;;;;;6338965;22;20427;-73
2021/08/30 04:00:46;;;;;;;5.40;4.23;;;;;;;;;;6338557;22;20372;-73
2021/08/30 04:03:13;;;;;;;4.43;4.03;;;;;;;;;;6339034;22;20442;-74
2021/08/30 04:05:42;;;;;;;4.73;3.80;;;;;;;;;;6336874;22;20676;-73
2021/08/30 04:08:08;;;;;;;4.70;4.30;;;;;;;;;;6337363;22;20835;-73
2021/08/30 04:10:35;;;;;;;5.13;4.70;;;;;;;;;;6337887;22;20455;-74
2021/08/30 04:13:02;;;;;;;5.27;4.77;;;;;;;;;;6338936;22;20445;-74
2021/08/30 04:15:28;;;;;;;5.97;5.47;;;;;;;;;;6338669;22;20395;-74
2021/08/30 04:17:54;;;;;;;5.50;5.10;;;;;;;;;;6338711;22;20894;-74
2021/08/30 04:20:20;;;;;;;5.57;5.07;;;;;;;;;;6338345;22;20467;-74
2021/08/30 04:22:46;;;;;;;5.73;4.83;;;;;;;;;;6338637;22;20372;-74
2021/08/30 04:25:12;;;;;;;5.50;5.00;;;;;;;;;;6348927;22;20387;-74
2021/08/30 04:27:38;;;;;;;7.70;5.17;;;;;;;;;;6369426;22;20368;-74
2021/08/30 04:30:05;;;;;;;4.73;4.33;;;;;;;;;;6341892;22;20391;-74
2021/08/30 04:32:36;;;;;;;4.37;4.03;;;;;;;;;;6369795;22;20363;-73
2021/08/30 04:35:03;;;;;;;5.10;4.60;;;;;;;;;;6380777;22;20382;-74
2021/08/30 04:37:29;;;;;;;4.67;4.30;;;;;;;;;;6369548;22;20419;-74
2021/08/30 04:39:55;;;;;;;4.40;3.87;;;;;;;;;;6369921;22;20385;-74
2021/08/30 04:42:21;;;;;;;4.70;4.30;;;;;;;;;;6369010;22;20814;-74
2021/08/30 04:44:49;;;;;;;5.97;5.47;;;;;;;;;;6369925;22;20520;-74
2021/08/30 04:47:15;;;;;;;6.00;5.50;;;;;;;;;;6380738;22;20382;-73
2021/08/30 04:49:41;;;;;;;7.37;6.30;;;;;;;;;;6380711;22;20450;-74
2021/08/30 04:52:07;;;;;;;8.17;6.60;;;;;;;;;;6380662;22;20715;-74
2021/08/30 04:54:33;;;;;;;7.50;6.80;;;;;;;;;;6379718;22;20375;-74
2021/08/30 04:56:59;;;;;;;7.00;6.37;;;;;;;;;;6368607;22;20476;-74
2021/08/30 04:59:25;;;;;;;9.70;7.00;;;;;;;;;;6369771;22;20383;-73
2021/08/30 05:01:51;;;;;;;8.40;7.50;;;;;;;;;;6371555;22;20387;-74
2021/08/30 05:04:17;;;;;;;8.70;7.90;;;;;;;;;;6341883;22;20399;-73
2021/08/30 05:06:43;;;;;;;8.27;6.97;;;;;;;;;;6369347;22;20864;-73
2021/08/30 05:09:09;;;;;;;7.00;6.30;;;;;;;;;;6380550;22;20433;-74
2021/08/30 05:11:38;;;;;;;7.57;6.77;;;;;;;;;;6368678;22;20745;-74
2021/08/30 05:14:04;;;;;;;8.93;7.67;;;;;;;;;;6369491;22;20379;-74
2021/08/30 05:16:31;;;;;;;7.27;6.67;;;;;;;;;;6369361;22;20386;-73
2021/08/30 05:18:57;;;;;;;7.07;6.37;;;;;;;;;;6369595;22;20423;-73
2021/08/30 05:21:22;;;;;;;7.30;6.30;;;;;;;;;;6369385;22;20378;-73
2021/08/30 05:23:49;;;;;;;6.80;5.50;;;;;;;;;;6380632;22;20428;-74
2021/08/30 05:26:15;;;;;;;6.10;5.50;;;;;;;;;;6374501;22;20426;-74
2021/08/30 05:28:41;;;;;;;5.57;5.07;;;;;;;;;;6369740;22;20367;-74
2021/08/30 05:31:07;;;;;;;6.77;5.17;;;;;;;;;;6341469;22;20398;-73
2021/08/30 05:33:33;;;;;;;6.70;5.70;;;;;;;;;;6380986;22;20379;-74
2021/08/30 05:35:59;;;;;;;7.83;7.03;;;;;;;;;;6371558;22;20364;-73
2021/08/30 05:38:25;;;;;;;7.70;5.23;;;;;;;;;;6371796;22;20746;-73
2021/08/30 05:40:51;;;;;;;7.87;6.30;;;;;;;;;;6370535;22;20367;-74
2021/08/30 05:43:17;;;;;;;6.30;5.70;;;;;;;;;;6371850;22;20442;-74
2021/08/30 05:45:43;;;;;;;6.07;5.50;;;;;;;;;;6371422;22;20379;-74
2021/08/30 05:48:09;;;;;;;6.77;6.10;;;;;;;;;;6371663;22;20836;-74
2021/08/30 05:50:35;;;;;;;7.00;6.30;;;;;;;;;;6372500;22;20414;-73
2021/08/30 05:53:01;;;;;;;7.53;6.80;;;;;;;;;;6382381;22;20721;-73
2021/08/30 05:55:27;;;;;;;8.30;7.43;;;;;;;;;;6370377;22;20371;-74
2021/08/30 05:57:53;;;;;;;8.53;7.63;;;;;;;;;;6371190;22;20468;-74
2021/08/30 06:00:19;;;;;;;7.63;6.93;;;;;;;;;;6371213;22;20390;-74
2021/08/30 06:02:45;;;;;;;9.00;7.83;;;;;;;;;;6342848;22;20387;-74
2021/08/30 06:05:11;;;;;;;6.90;6.30;;;;;;;;;;6371291;22;20712;-73
2021/08/30 06:07:39;;;;;;;6.93;5.90;;;;;;;;;;6371228;22;20405;-74
2021/08/30 06:10:05;;;;;;;6.50;5.90;;;;;;;;;;6371342;22;20856;-73
2021/08/30 06:12:31;;;;;;;7.60;6.90;;;;;;;;;;6342573;22;20387;-73
2021/08/30 06:14:57;;;;;;;9.37;7.30;;;;;;;;;;6371563;22;20909;-73
2021/08/30 06:17:23;;;;;;;6.93;6.23;;;;;;;;;;6343406;22;20749;-74
2021/08/30 06:19:49;;;;;;;8.47;7.57;;;;;;;;;;6371541;22;20401;-73
2021/08/30 06:22:15;;;;;;;8.20;7.40;;;;;;;;;;6371099;22;20371;-74
2021/08/30 06:24:46;;;;;;;8.53;7.10;;;;;;;;;;6371408;22;20375;-74
2021/08/30 06:27:12;;;;;;;7.53;6.67;;;;;;;;;;6371903;22;20470;-73
2021/08/30 06:29:38;;;;;;;8.30;6.80;;;;;;;;;;6371473;22;20738;-74
2021/08/30 06:32:05;;;;;;;8.00;7.30;;;;;;;;;;6371057;22;20419;-73
2021/08/30 06:34:31;;;;;;;7.10;6.40;;;;;;;;;;6343183;22;20386;-74
2021/08/30 06:36:56;;;;;;;9.60;7.20;;;;;;;;;;6371034;22;20454;-74
2021/08/30 06:39:23;;;;;;;8.57;7.77;;;;;;;;;;6343213;22;20438;-74
2021/08/30 06:41:49;;;;;;;9.37;7.77;;;;;;;;;;6370236;22;20371;-73
2021/08/30 06:44:15;;;;;;;8.60;7.23;;;;;;;;;;6371112;22;20382;-73
2021/08/30 06:46:41;;;;;;;7.90;6.80;;;;;;;;;;6375915;22;20383;-73
2021/08/30 06:49:07;;;;;;;9.20;8.20;;;;;;;;;;6371071;22;20382;-73
2021/08/30 06:51:33;;;;;;;8.47;7.33;;;;;;;;;;6342874;22;20462;-73
2021/08/30 06:53:59;;;;;;;8.03;7.20;;;;;;;;;;6371156;22;20448;-73
2021/08/30 06:56:25;;;;;;;8.57;7.67;;;;;;;;;;6368885;22;20379;-73
2021/08/30 06:58:51;;;;;;;9.40;7.57;;;;;;;;;;6342988;22;20438;-73
2021/08/30 07:01:17;;;;;;;6.67;5.97;;;;;;;;;;6369432;22;20383;-74
2021/08/30 07:03:43;;;;;;;17.17;7.60;;;;;;;;;;6371058;22;20909;-74
2021/08/30 07:06:09;;;;;;;7.67;6.80;;;;;;;;;;6370784;22;20458;-75
2021/08/30 07:08:35;;;;;;;8.03;7.23;;;;;;;;;;6370939;22;20390;-75
2021/08/30 07:11:01;;;;;;;8.30;7.23;;;;;;;;;;6369888;22;20378;-74
2021/08/30 07:13:27;;;;;;;7.53;6.87;;;;;;;;;;6371014;22;20826;-74
2021/08/30 07:15:53;;;;;;;8.17;6.73;;;;;;;;;;6370555;22;20458;-74
2021/08/30 07:18:19;;;;;;;7.63;6.83;;;;;;;;;;6366225;22;20469;-75
2021/08/30 07:20:45;;;;;;;8.50;6.70;;;;;;;;;;6366114;22;20950;-74
2021/08/30 07:23:11;;;;;;;7.33;6.53;;;;;;;;;;6367247;22;20415;-73
2021/08/30 07:25:37;;;;;;;7.87;6.50;;;;;;;;;;6366365;22;20925;-73
2021/08/30 07:28:04;;;;;;;7.17;6.47;;;;;;;;;;6365718;22;20460;-72
2021/08/30 07:30:31;;;;;;;9.07;7.10;;;;;;;;;;6377195;22;20379;-73
2021/08/30 07:32:56;;;;;;;8.70;6.80;;;;;;;;;;6377335;22;20383;-74
2021/08/30 07:35:23;;;;;;;7.23;6.53;;;;;;;;;;6369673;22;20368;-75
2021/08/30 07:37:49;;;;;;;7.50;6.50;;;;;;;;;;6376968;22;20717;-73
2021/08/30 07:40:15;;;;;;;7.83;7.13;;;;;;;;;;6376417;22;20395;-73
2021/08/30 07:42:42;;;;;;;7.70;7.00;;;;;;;;;;6338474;22;20912;-73
2021/08/30 07:45:08;;;;;;;6.87;6.27;;;;;;;;;;6331594;22;20383;-72
2021/08/30 07:47:34;;;;;;;7.97;6.70;;;;;;;;;;6373757;22;20395;-74
2021/08/30 07:50:00;;;;;;;7.83;7.03;;;;;;;;;;6374501;22;20375;-75
2021/08/30 07:52:26;;;;;;;7.60;6.60;;;;;;;;;;6374257;22;20685;-74
2021/08/30 07:54:53;;;;;;;7.90;7.10;;;;;;;;;;6374462;22;20441;-72
2021/08/30 07:57:19;;;;;;;7.60;6.90;;;;;;;;;;6372889;22;20415;-75
2021/08/30 07:59:45;;;;;;;10.53;6.60;;;;;;;;;;6374258;22;20387;-74
2021/08/30 08:02:11;;;;;;;7.40;6.70;;;;;;;;;;6336042;22;20713;-73
2021/08/30 08:04:37;;;;;;;8.07;6.40;;;;;;;;;;6377615;22;20371;-72
2021/08/30 08:07:03;;;;;;;8.40;6.00;;;;;;;;;;6373786;22;20701;-73
2021/08/30 08:09:30;;;;;;;6.23;5.63;;;;;;;;;;6374285;22;20838;-73
2021/08/30 08:11:56;;;;;;;6.03;5.30;;;;;;;;;;6335927;22;20474;-68
2021/08/30 08:14:22;;;;;;;6.20;5.60;;;;;;;;;;6367078;22;20523;-69
2021/08/30 08:16:48;;;;;;;7.03;5.73;;;;;;;;;;6377572;22;20470;-73
2021/08/30 08:19:15;;;;;;;7.33;6.63;;;;;;;;;;6377440;22;20927;-74
2021/08/30 08:21:41;;;;;;;6.27;5.33;;;;;;;;;;6377758;22;20371;-73
2021/08/30 08:24:08;;;;;;;6.20;5.60;;;;;;;;;;6377639;22;20386;-73
2021/08/30 08:26:35;;;;;;;6.13;5.63;;;;;;;;;;6366547;22;20475;-74
2021/08/30 08:29:01;;;;;;;6.37;5.70;;;;;;;;;;6377558;22;20364;-74
2021/08/30 08:31:27;;;;;;;6.20;5.60;;;;;;;;;;6377197;22;20394;-75
2021/08/30 08:33:53;;;;;;;6.37;5.87;;;;;;;;;;6370431;22;20837;-74
2021/08/30 08:36:20;;;;;;;5.87;5.27;;;;;;;;;;6336703;22;20395;-74
2021/08/30 08:38:47;;;;;;;5.97;5.40;;;;;;;;;;6336417;22;20441;-75
2021/08/30 08:41:13;;;;;;;6.77;5.27;;;;;;;;;;6374922;22;20363;-76
2021/08/30 08:43:39;;;;;;;5.53;5.00;;;;;;;;;;6336462;22;20402;-78
2021/08/30 08:46:05;;;;;;;5.80;5.20;;;;;;;;;;6375024;22;20403;-74
2021/08/30 08:48:31;;;;;;;5.13;4.47;;;;;;;;;;6374943;22;20376;-74
2021/08/30 08:50:57;;;;;;;4.63;4.23;;;;;;;;;;6375115;22;21308;-74
2021/08/30 08:53:23;;;;;;;5.70;5.10;;;;;;;;;;6375329;22;20738;-72
2021/08/30 08:55:49;;;;;;;5.97;5.40;;;;;;;;;;6335638;22;20422;-73
2021/08/30 08:58:17;;;;;;;5.80;5.27;;;;;;;;;;6374910;22;20472;-72
2021/08/30 09:00:44;;;;;;;4.83;4.33;;;;;;;;;;6374742;22;20363;-76
2021/08/30 09:03:17;;;;;;;6.33;4.40;;;;;;;;;;6335995;22;20425;-76
2021/08/30 09:05:43;;;;;;;5.40;3.97;;;;;;;;;;6363857;22;20856;-79
2021/08/30 09:08:29;;;;;;;5.23;4.73;;;;;;;;;;6335898;22;20469;-75
2021/08/30 09:10:55;;;;;;;5.53;4.50;;;;;;;;;;6371565;22;20686;-75
2021/08/30 09:13:26;;;;;;;5.00;4.47;;;;;;;;;;6373914;22;20746;-75
2021/08/30 09:15:52;;;;;;;5.67;5.00;;;;;;;;;;6363435;22;20410;-75
2021/08/30 09:18:18;;;;;;;5.60;4.27;;;;;;;;;;6369152;22;20418;-75
2021/08/30 09:20:44;;;;;;;5.37;4.87;;;;;;;;;;6373197;22;20381;-75
2021/08/30 09:23:15;;;;;;;4.20;3.90;;;;;;;;;;6373379;22;20413;-75
2021/08/30 09:25:42;;;;;;;5.73;4.77;;;;;;;;;;6364471;22;20762;-75
2021/08/30 09:28:08;;;;;;;5.87;5.27;;;;;;;;;;6376293;22;20382;-75
2021/08/30 09:30:34;;;;;;;5.37;4.87;;;;;;;;;;6337435;22;20399;-75
2021/08/30 09:33:00;;;;;;;5.83;5.23;;;;;;;;;;6376229;22;20386;-74
2021/08/30 09:35:27;;;;;;;5.33;4.90;;;;;;;;;;6365532;22;20909;-75
2021/08/30 09:37:53;;;;;;;7.17;5.60;;;;;;;;;;6370203;22;20430;-75
2021/08/30 09:40:20;;;;;;;6.23;5.63;;;;;;;;;;6334616;22;20714;-75
2021/08/30 09:42:48;;;;;;;7.10;6.40;;;;;;;;;;6335467;22;20395;-75
2021/08/30 09:45:14;;;;;;;10.37;7.07;;;;;;;;;;6335305;22;21306;-76
2021/08/30 09:47:49;;;;;;;7.40;6.60;;;;;;;;;;6373668;22;20418;-75
2021/08/30 09:50:15;;;;;;;7.03;6.33;;;;;;;;;;6364648;22;20407;-75
2021/08/30 09:52:41;;;;;;;8.27;6.70;;;;;;;;;;6374714;22;20367;-74
2021/08/30 09:55:07;;;;;;;7.90;6.93;;;;;;;;;;6365115;22;20383;-75
2021/08/30 09:57:34;;;;;;;8.13;7.03;;;;;;;;;;6376659;22;20421;-75
2021/08/30 10:00:02;;;;;;;8.37;7.20;;;;;;;;;;6377188;22;20414;-75
2021/08/30 10:02:30;;;;;;;8.20;7.40;;;;;;;;;;6337833;22;20473;-75
2021/08/30 10:04:59;;;;;;;12.43;7.40;;;;;;;;;;6375124;22;20375;-75
2021/08/30 10:07:26;;;;;;;7.20;6.50;;;;;;;;;;6375948;22;20674;-76
2021/08/30 10:09:52;;;;;;;8.70;7.50;;;;;;;;;;6376130;22;20379;-75
2021/08/30 10:12:18;;;;;;;8.63;7.50;;;;;;;;;;6376365;22;20371;-76
2021/08/30 10:14:44;;;;;;;12.50;7.67;;;;;;;;;;6340944;22;20391;-75
2021/08/30 10:17:10;;;;;;;10.80;6.90;;;;;;;;;;6378041;22;20383;-75
2021/08/30 10:19:39;;;;;;;7.90;7.20;;;;;;;;;;6340162;22;20426;-76
2021/08/30 10:22:16;;;;;;;8.60;7.67;;;;;;;;;;6380263;22;20389;-75
2021/08/30 10:24:42;;;;;;;10.13;8.20;;;;;;;;;;6381945;22;20869;-76
2021/08/30 10:27:12;;;;;;;8.50;7.70;;;;;;;;;;6380918;22;20727;-76
2021/08/30 10:29:39;;;;;;;8.40;7.47;;;;;;;;;;6343958;22;20512;-76
2021/08/30 10:32:08;;;;;;;8.87;7.67;;;;;;;;;;6371460;22;20440;-77
2021/08/30 10:34:35;;;;;;;11.57;9.20;;;;;;;;;;6371595;22;20695;-77
2021/08/30 10:37:02;;;;;;;9.40;8.50;;;;;;;;;;6379179;22;20770;-77
2021/08/30 10:39:41;;;;;;;12.70;8.50;;;;;;;;;;6380611;22;20426;-77
2021/08/30 10:42:10;;;;;;;9.53;7.77;;;;;;;;;;6379732;22;20355;-76
2021/08/30 10:44:48;;;;;;;10.40;9.10;;;;;;;;;;6342628;22;20399;-77
2021/08/30 10:47:14;;;;;;;11.83;8.70;;;;;;;;;;6340719;22;20421;-76
2021/08/30 10:49:42;;;;;;;10.57;9.33;;;;;;;;;;6380783;22;20375;-75
2021/08/30 10:52:10;;;;;;;9.50;8.60;;;;;;;;;;6380278;22;20371;-75
2021/08/30 10:54:36;;;;;;;12.70;8.33;;;;;;;;;;6370720;22;20383;-76
2021/08/30 10:57:04;;;;;;;10.67;8.67;;;;;;;;;;6380326;22;20420;-75
2021/08/30 10:59:31;;;;;;;9.27;8.37;;;;;;;;;;6377518;22;20486;-76
2021/08/30 11:01:59;;;;;;;13.27;9.10;;;;;;;;;;6337467;22;20394;-77
2021/08/30 11:04:36;;;;;;;9.47;8.57;;;;;;;;;;6368962;22;20546;-74
2021/08/30 11:07:03;;;;;;;9.73;8.73;;;;;;;;;;6378596;22;20378;-73
2021/08/30 11:09:29;;;;;;;10.40;8.20;;;;;;;;;;6378997;22;20428;-68
2021/08/30 11:11:55;;;;;;;7.87;7.17;;;;;;;;;;6378050;22;20687;-74
2021/08/30 11:14:22;;;;;;;9.00;8.10;;;;;;;;;;6340164;22;20490;-76
2021/08/30 11:16:57;;;;;;;9.03;7.87;;;;;;;;;;6340392;22;20444;-75
2021/08/30 11:19:24;;;;;;;12.80;7.77;;;;;;;;;;6371606;22;20461;-75
2021/08/30 11:21:52;;;;;;;10.30;9.30;;;;;;;;;;6368277;22;20383;-76
2021/08/30 11:24:25;;;;;;;9.40;8.50;;;;;;;;;;6368403;22;20383;-76
2021/08/30 11:26:52;;;;;;;8.23;6.83;;;;;;;;;;6377778;22;20889;-76
2021/08/30 11:29:24;;;;;;;6.80;6.10;;;;;;;;;;6368524;22;20926;-76
2021/08/30 11:31:51;;;;;;;7.00;6.40;;;;;;;;;;6376395;22;20826;-76
2021/08/30 11:34:30;;;;;;;7.47;6.80;;;;;;;;;;6378523;22;20399;-77
2021/08/30 11:36:56;;;;;;;8.13;6.73;;;;;;;;;;6367160;22;20383;-77
2021/08/30 11:39:22;;;;;;;7.80;7.00;;;;;;;;;;6377980;22;20477;-75
2021/08/30 11:42:08;;;;;;;10.13;7.10;;;;;;;;;;6367615;22;20742;-75
2021/08/30 11:44:35;;;;;;;9.20;7.50;;;;;;;;;;6378333;22;20382;-74
2021/08/30 11:47:02;;;;;;;10.30;7.27;;;;;;;;;;6377767;22;20693;-75
2021/08/30 11:49:29;;;;;;;10.27;7.60;;;;;;;;;;6378330;22;20367;-76
2021/08/30 11:51:58;;;;;;;10.37;7.40;;;;;;;;;;6367482;22;20374;-75
2021/08/30 11:54:31;;;;;;;7.90;7.10;;;;;;;;;;6377982;22;20378;-77
2021/08/30 11:56:57;;;;;;;8.90;7.80;;;;;;;;;;6377233;22;20714;-76
2021/08/30 11:59:27;;;;;;;9.37;8.10;;;;;;;;;;6377616;22;20460;-76
2021/08/30 12:01:53;;;;;;;9.40;8.40;;;;;;;;;;6367194;22;20383;-76
2021/08/30 12:04:19;;;;;;;9.47;6.97;;;;;;;;;;6378266;22;20444;-77
2021/08/30 12:06:49;;;;;;;7.70;7.00;;;;;;;;;;6377786;22;20399;-76
2021/08/30 12:09:15;;;;;;;8.57;7.77;;;;;;;;;;6377937;22;20420;-77
2021/08/30 12:11:52;;;;;;;9.23;7.20;;;;;;;;;;6377061;22;20371;-76
2021/08/30 12:14:20;;;;;;;8.40;7.50;;;;;;;;;;6378173;22;20408;-76
2021/08/30 12:16:46;;;;;;;9.40;8.40;;;;;;;;;;6339912;22;20403;-75
2021/08/30 12:19:13;;;;;;;9.50;8.23;;;;;;;;;;6377575;22;20434;-77
2021/08/30 12:21:40;;;;;;;10.20;8.17;;;;;;;;;;6339299;22;20411;-75
2021/08/30 12:24:07;;;;;;;10.27;8.07;;;;;;;;;;6378064;22;20378;-77
2021/08/30 12:26:35;;;;;;;8.13;7.40;;;;;;;;;;6377152;22;20468;-76
2021/08/30 12:29:02;;;;;;;8.37;7.57;;;;;;;;;;6367650;22;20448;-76
2021/08/30 12:31:32;;;;;;;8.57;7.77;;;;;;;;;;6367419;22;20395;-77
2021/08/30 12:34:02;;;;;;;9.30;7.80;;;;;;;;;;6377825;22;20427;-77
2021/08/30 12:36:28;;;;;;;9.20;7.93;;;;;;;;;;6377681;22;20463;-77
2021/08/30 12:38:54;;;;;;;7.80;7.00;;;;;;;;;;6377605;22;20433;-76
2021/08/30 12:41:20;;;;;;;10.00;9.00;;;;;;;;;;6376867;22;20372;-76
2021/08/30 12:43:47;;;;;;;8.50;7.63;;;;;;;;;;6377484;22;20383;-76
2021/08/30 12:46:13;;;;;;;9.07;8.10;;;;;;;;;;6377507;22;20378;-76
2021/08/30 12:48:42;;;;;;;9.40;8.33;;;;;;;;;;6377311;22;20874;-76
2021/08/30 12:51:10;;;;;;;8.50;7.33;;;;;;;;;;6377224;22;20372;-77
2021/08/30 12:53:36;;;;;;;12.70;8.77;;;;;;;;;;6377816;22;20394;-77
2021/08/30 12:56:02;;;;;;;10.00;8.23;;;;;;;;;;6376700;22;20693;-74
2021/08/30 12:58:28;;;;;;;11.43;7.80;;;;;;;;;;6377702;22;20430;-75
2021/08/30 13:00:54;;;;;;;10.97;8.33;;;;;;;;;;6367153;22;20371;-75
2021/08/30 13:03:21;;;;;;;11.60;8.23;;;;;;;;;;6377437;22;20747;-75
2021/08/30 13:05:47;;;;;;;9.53;8.57;;;;;;;;;;6377103;22;20408;-75
2021/08/30 13:08:14;;;;;;;9.83;7.57;;;;;;;;;;6377608;22;20376;-75
2021/08/30 13:10:41;;;;;;;9.33;8.30;;;;;;;;;;6366218;22;20379;-75
2021/08/30 13:13:08;;;;;;;13.00;8.07;;;;;;;;;;6366890;22;20396;-75
2021/08/30 13:15:34;;;;;;;7.03;6.33;;;;;;;;;;6367186;22;20424;-76
2021/08/30 13:18:00;;;;;;;9.07;6.53;;;;;;;;;;6377732;22;20907;-77
2021/08/30 13:20:26;;;;;;;8.17;7.10;;;;;;;;;;6377522;22;20466;-76
2021/08/30 13:22:52;;;;;;;7.10;5.90;;;;;;;;;;6377252;22;20371;-76
2021/08/30 13:25:21;;;;;;;8.30;7.10;;;;;;;;;;6338072;22;20456;-77
2021/08/30 13:27:48;;;;;;;7.10;6.40;;;;;;;;;;6377756;22;20385;-75
2021/08/30 13:30:15;;;;;;;7.57;5.93;;;;;;;;;;6377479;22;20428;-76
2021/08/30 13:32:41;;;;;;;8.07;7.00;;;;;;;;;;6369730;22;20440;-77
2021/08/30 13:35:09;;;;;;;7.53;6.83;;;;;;;;;;6377869;22;20383;-76
2021/08/30 13:37:35;;;;;;;8.27;7.33;;;;;;;;;;6377486;22;20503;-76
2021/08/30 13:40:00;;;;;;;7.07;6.33;;;;;;;;;;6377406;22;20372;-76
2021/08/30 13:42:26;;;;;;;7.17;6.40;;;;;;;;;;6376658;22;20363;-76
2021/08/30 13:44:52;;;;;;;8.00;7.30;;;;;;;;;;6377752;22;20383;-76
2021/08/30 13:47:18;;;;;;;6.37;5.77;;;;;;;;;;6339230;22;20390;-76
2021/08/30 13:49:44;;;;;;;8.33;7.10;;;;;;;;;;6377450;22;20714;-77
2021/08/30 13:52:10;;;;;;;8.07;7.27;;;;;;;;;;6377159;22;20379;-77
2021/08/30 13:54:36;;;;;;;10.43;8.27;;;;;;;;;;6378327;22;20448;-77
2021/08/30 13:57:04;;;;;;;9.50;8.60;;;;;;;;;;6378628;22;20695;-77
2021/08/30 13:59:30;;;;;;;8.30;7.37;;;;;;;;;;6368430;22;20426;-77
2021/08/30 14:01:56;;;;;;;8.83;7.90;;;;;;;;;;6378469;22;20379;-77
2021/08/30 14:04:22;;;;;;;10.03;8.30;;;;;;;;;;6379485;22;20387;-78
2021/08/30 14:06:48;;;;;;;8.90;7.67;;;;;;;;;;6379117;22;20732;-77
2021/08/30 14:09:14;;;;;;;6.73;5.37;;;;;;;;;;6379163;22;20379;-77
2021/08/30 14:11:40;;;;;;;5.70;5.20;;;;;;;;;;6378194;22;20375;-77
2021/08/30 14:14:06;;;;;;;6.53;5.90;;;;;;;;;;6379688;22;20386;-78
2021/08/30 14:16:32;;;;;;;5.87;4.80;;;;;;;;;;6379152;22;20406;-76
2021/08/30 14:18:58;;;;;;;5.37;4.80;;;;;;;;;;6379112;22;20565;-77
2021/08/30 14:21:27;;;;;;;5.27;4.77;;;;;;;;;;6378933;22;20450;-76
2021/08/30 14:23:53;;;;;;;6.50;5.23;;;;;;;;;;6379390;22;20774;-76
2021/08/30 14:26:19;;;;;;;9.67;4.70;;;;;;;;;;6339593;22;20434;-77
2021/08/30 14:28:45;;;;;;;6.03;5.17;;;;;;;;;;6379026;22;20375;-76
2021/08/30 14:31:11;;;;;;;6.00;5.50;;;;;;;;;;6378785;22;20463;-77
2021/08/30 14:33:42;;;;;;;6.23;5.60;;;;;;;;;;6379257;22;20441;-77
2021/08/30 14:36:08;;;;;;;5.20;4.70;;;;;;;;;;6379022;22;20382;-76
2021/08/30 14:38:34;;;;;;;5.33;4.83;;;;;;;;;;6340761;22;20549;-76
2021/08/30 14:41:01;;;;;;;6.83;4.30;;;;;;;;;;6378035;22;20399;-77
2021/08/30 14:43:27;;;;;;;6.33;5.60;;;;;;;;;;6378930;22;20376;-75
2021/08/30 14:45:53;;;;;;;6.77;6.10;;;;;;;;;;6340510;22;20850;-74